Detall de PIREP

Printer-friendly versionPDF version

[2014/01/01 10:22:00]
Flight IATA:CT1004
Pilot Number:012
Company ICAO:CAT
Aircraft Type:B463/A
PAX:65
Aircraft Registration:PAX
Departing Airport: LIEA
Destination Airport: LWSK
Alternate Airport:LGTS
Online: VATSIM
Route:KOLUS UM603 BRD UP92 PAPIZ UT214 DOBAR UT216 PEP
Flight Level:F290
No Slew and time accel
No pause
Crash detect
Detect pilot in Cockpit between each 30 and 45 minutes
10:22 Zero fuel Weight: 67333 Lbs, Fuel Weight: 17929 Lbs
10:22 VATSIM:LIEA 010950Z VRB02KT 9999 BKN030 10/10 Q1021
10:22 VATSIM:LWSK 011000Z 00000KT 3100 BR SCT005 BKN013 06/05 Q1023 NOSIG
10:22 VOICE CATALONIAN / XMAS CHARTER
10:24 Parking Brakes off
10:30 Take-off
10:30 Take off Weight: 84825 Lbs
10:30 Wind: 358º @ 001 Knots Heading: 204º
10:30 POS N40º 37´ 46´´ E008º 17´ 21´´
10:30 Flaps:1 at 144 Knots
10:30 Gear Up: 145 Knots
10:32 Flaps:0 at 171 Knots
10:45 Wind:306º@032 Knots Heading: 080º Ground Speed: 417 Knots Altitude 27414 ft
10:46 TOC
10:46 Fuel Weight: 15190 Lb
10:49 Gear Down: 264 Knots
10:50 TOD
10:50 Fuel Weight: 14962 Lb
10:51 Gear Up: 158 Knots
10:56 TOC
10:56 Fuel Weight: 14421 Lb
11:00 Wind:294º@016 Knots Heading: 085º Ground Speed: 416 Knots Altitude 29186 ft
11:15 Wind:299º@016 Knots Heading: 106º Ground Speed: 425 Knots Altitude 29130 ft
11:30 Wind:319º@015 Knots Heading: 088º Ground Speed: 420 Knots Altitude 29130 ft
11:45 Wind:331º@012 Knots Heading: 070º Ground Speed: 414 Knots Altitude 29156 ft
12:00 Wind:232º@008 Knots Heading: 076º Ground Speed: 416 Knots Altitude 29166 ft
12:01 TOD
12:01 Fuel Weight: 8584 Lb
12:15 Wind:318º@004 Knots Heading: 315º Ground Speed: 189 Knots Altitude 3700 ft
12:16 Flaps:1 at 196 Knots
12:18 Gear Down: 155 Knots
12:18 Flaps:2 at 151 Knots
12:19 Flaps:3 at 146 Knots
12:19Flaps:4 at 134 Knots
12:22 TouchDown:Rate -71 ft/min Speed: 114 Knots
12:22 VATSIM:LWSK 011200Z 08004KT 9999 FEW007 SCT013 BKN033 07/04 Q1021 NOSIG
12:22 Land
12:22 Wind:115º@004 Knots
12:22 Heading: 345º
12:22 Flight Duration: 01:52
12:22 Landing Weight: 75153 Lbs
12:22 POS N41º 57´ 53´´ E021º 37´ 12´´
12:25 Parking brakes on
12:25 Block to Block Duration: 02:01
12:25 Final Fuel: 7716 Lbls
12:25 Spent Fuel: 10213 Lbls
12:25 Flight Length: 688 NM
12:25 TOD Land Length: 88 NM

Exportar CSV

Powered by Drupal - Modified by Danger4k